Whitehall, Wisconsin
Current Conditions -  °F | °C
As of 1:35 PM on Tuesday 21 Oct 2014 (Local Time) from KBCK Reporting Station
Scattered Clouds Scattered Clouds  
Wind Chill: 52°   Ceiling: Unl
Heat Index: 52°   Visibility: 10mi
Dew Point: 34°   Wind: 5mph
Humidity: 50%   Direction: 160°SSE
Pressure: 30.22"   Gusts: NA
Location:  44.37°N, 91.32°W
Report Text: KBCK 211835Z AUTO 16004KT 10SM SCT031 11/01 A3022 RMK AO2 T01130012
Loading
Personal Weather Stations






























Interactive Weather Map
Tropical Storm Tracking
New forecast layout! Learn more

10-Day Weather Forecast

Advertisements
Track Severe Weather on mobile